Flight Track Log - Related Links

Times and Time Zones

All times are in EDT time to prevent confusion due to time zone crossing. See the SLI2164 flight status page for this flight to view local times or setup timezone preferences in your user account.

Time Position Orientation Groundspeed Altitude Reporting Facility
EDT Latitude Longitude Course Direction KTS MPH feet Rate Location/Type
Sun 02:09:00 PM 26.3955 -111.7420 319° Northwest  Level FlightAware Approximate
Sun 02:10:00 PM 26.4632 -111.8079 319° Northwest  Level FlightAware Approximate
Sun 02:11:00 PM 26.5307 -111.8738 319° Northwest  Level FlightAware Approximate
Sun 02:12:00 PM 26.5983 -111.9398 319° Northwest  Level FlightAware Approximate
Sun 02:13:00 PM 26.6658 -112.0060 319° Northwest  Level FlightAware Approximate
Sun 02:14:00 PM 26.7333 -112.0721 319° Northwest  Level FlightAware Approximate
Sun 02:15:00 PM 26.8008 -112.1384 319° Northwest  Level FlightAware Approximate
Sun 02:16:00 PM 26.8682 -112.2048 319° Northwest  Level FlightAware Approximate
Sun 02:17:00 PM 26.9356 -112.2712 319° Northwest  Level FlightAware Approximate
Sun 02:18:00 PM 27.0030 -112.3377 319° Northwest  Level FlightAware Approximate
Sun 02:19:00 PM 27.0704 -112.4043 319° Northwest  Level FlightAware Approximate
Sun 02:20:00 PM 27.1377 -112.4709 319° Northwest  Level FlightAware Approximate
Sun 02:21:00 PM 27.2049 -112.5377 319° Northwest  Level FlightAware Approximate
Sun 02:22:00 PM 27.2722 -112.6045 319° Northwest  Level FlightAware Approximate
Sun 02:23:00 PM 27.3394 -112.6714 319° Northwest  Level FlightAware Approximate
Sun 02:24:00 PM 27.4066 -112.7384 318° Northwest  Level FlightAware Approximate
Sun 02:25:00 PM 27.4737 -112.8054 318° Northwest  Level FlightAware Approximate
Sun 02:26:00 PM 27.5409 -112.8726 318° Northwest  Level FlightAware Approximate
Sun 02:27:00 PM 27.6080 -112.9398 318° Northwest  Level FlightAware Approximate
Sun 02:28:00 PM 27.6750 -113.0071 318° Northwest  Level FlightAware Approximate
Sun 02:29:00 PM 27.7420 -113.0745 318° Northwest  Level FlightAware Approximate
Sun 02:30:00 PM 27.8090 -113.1420 318° Northwest  Level FlightAware Approximate
Sun 02:31:00 PM 27.8825 -113.2003 319° Northwest  Level Estimated
Sun 02:32:00 PM 27.9488 -113.2687 318° Northwest  Level FlightAware Approximate
Sun 02:33:00 PM 28.0151 -113.3372 318° Northwest  Level FlightAware Approximate
Sun 02:34:00 PM 28.0814 -113.4057 318° Northwest  Level FlightAware Approximate
Sun 02:35:00 PM 28.1476 -113.4743 318° Northwest  Level FlightAware Approximate
Sun 02:36:00 PM 28.2138 -113.5430 318° Northwest  Level FlightAware Approximate
Sun 02:37:00 PM 28.2800 -113.6118 318° Northwest  Level FlightAware Approximate
Sun 02:38:00 PM 28.3537 -113.6699 317° Northwest  Level Estimated
Sun 02:39:00 PM 28.4175 -113.7417 315° West  Level FlightAware Approximate
Sun 02:40:00 PM 28.4812 -113.8135 315° West  Level FlightAware Approximate
Sun 02:41:00 PM 28.5449 -113.8855 315° West  Level FlightAware Approximate
Sun 02:42:00 PM 28.6189 -113.9433 317° Northwest  Level Estimated
Sun 02:43:00 PM 28.6826 -114.0153 315° West  Level FlightAware Approximate
Sun 02:44:00 PM 28.7463 -114.0874 315° West  Level FlightAware Approximate
Sun 02:45:00 PM 28.8099 -114.1596 315° West  Level FlightAware Approximate
Sun 02:46:00 PM 28.8735 -114.2319 315° West  Level FlightAware Approximate
Sun 02:47:00 PM 28.9478 -114.2893 318° Northwest  Level Estimated
Sun 02:48:00 PM 29.0129 -114.3600 316° Northwest  Level FlightAware Approximate
Sun 02:49:00 PM 29.0779 -114.4307 316° Northwest  Level FlightAware Approximate
Sun 02:50:00 PM 29.1428 -114.5016 316° Northwest  Level FlightAware Approximate
Sun 02:51:00 PM 29.2078 -114.5725 316° Northwest  Level FlightAware Approximate
Sun 02:52:00 PM 29.2727 -114.6435 316° Northwest  Level FlightAware Approximate
Sun 02:53:00 PM 29.3375 -114.7147 316° Northwest  Level FlightAware Approximate
Sun 02:54:00 PM 29.4124 -114.7713 318° Northwest  Level Estimated
Sun 02:55:00 PM 29.4781 -114.8415 317° Northwest  Level FlightAware Approximate
Sun 02:56:00 PM 29.5438 -114.9118 317° Northwest  Level FlightAware Approximate
Sun 02:57:00 PM 29.6094 -114.9821 317° Northwest  Level FlightAware Approximate
Sun 02:58:00 PM 29.6751 -115.0526 317° Northwest  Level FlightAware Approximate
Sun 02:59:00 PM 29.7145 -115.0950 317° Northwest  Level FlightAware Approximate
Sun 03:00:00 PM 29.7540 -115.1375 317° Northwest  Level FlightAware Approximate
Sun 03:01:00 PM 29.7934 -115.1800 317° Northwest  Level FlightAware Approximate
Sun 03:02:00 PM 29.8329 -115.2226 317° Northwest  Level FlightAware Approximate
Sun 03:03:00 PM 29.8723 -115.2652 317° Northwest  Level FlightAware Approximate
Sun 03:04:00 PM 29.9117 -115.3078 317° Northwest  Level FlightAware Approximate
Sun 03:05:00 PM 29.9511 -115.3504 317° Northwest  Level FlightAware Approximate
Sun 03:06:00 PM 29.9904 -115.3931 317° Northwest  Level FlightAware Approximate
Sun 03:07:00 PM 30.0298 -115.4359 317° Northwest  Level FlightAware Approximate
Sun 03:08:00 PM 30.0692 -115.4786 317° Northwest  Level FlightAware Approximate
Sun 03:09:00 PM 30.1085 -115.5214 317° Northwest  Level FlightAware Approximate
Sun 03:10:00 PM 30.1478 -115.5642 317° Northwest  Level FlightAware Approximate
Sun 03:11:00 PM 30.1871 -115.6071 317° Northwest  Level FlightAware Approximate
Sun 03:12:00 PM 30.2264 -115.6500 317° Northwest  Level FlightAware Approximate
Sun 03:13:00 PM 30.2657 -115.6929 317° Northwest  Level FlightAware Approximate
Sun 03:14:00 PM 30.3050 -115.7359 317° Northwest  Level FlightAware Approximate
Sun 03:14:14 PM 32.2819 -115.0297 338° Northwest 364 419 36,000  Level Los Angeles Center
Sun 03:15:00 PM 30.3442 -115.7789 317° Northwest  Level FlightAware Approximate
Sun 03:15:16 PM 32.3592 -115.1006 322° Northwest 352 405 36,000  Level Los Angeles Center
Sun 03:16:00 PM 30.3834 -115.8219 317° Northwest  Level FlightAware Approximate
Sun 03:16:18 PM 32.4108 -115.1992 302° West 355 409 36,000  Level Los Angeles Center
Sun 03:17:00 PM 30.4227 -115.8650 317° Northwest  Level FlightAware Approximate
Sun 03:17:20 PM 32.4664 -115.3053 302° West 354 407 36,000  Level Los Angeles Center
Sun 03:18:00 PM 30.4619 -115.9081 317° Northwest  Level FlightAware Approximate
Sun 03:18:23 PM 32.5183 -115.4042 302° West 354 407 36,000  Level Los Angeles Center
Sun 03:19:00 PM 30.5084 -115.9400 338° Northwest  Level Estimated
Sun 03:19:26 PM 32.5708 -115.5028 302° West 355 409 36,000  Level Los Angeles Center
Sun 03:20:27 PM 32.6236 -115.6008 303° West 355 409 36,000  Level Los Angeles Center
Sun 03:21:29 PM 32.6864 -115.7189 302° West 354 407 36,000  Level Los Angeles Center
Sun 03:22:31 PM 32.7383 -115.8169 302° West 353 406 36,000  Level Los Angeles Center
Sun 03:23:33 PM 32.7897 -115.9142 302° West 350 403 36,000  Level Los Angeles Center
Sun 03:24:35 PM 32.8422 -116.0125 302° West 352 405 36,000 -336 Level Los Angeles Center
Sun 03:25:38 PM 32.8931 -116.1100 302° West 353 406 35,300 -1,536 Descending Los Angeles Center
Sun 03:26:40 PM 32.9486 -116.2161 302° West 361 415 32,800 -2,806 Descending Los Angeles Center
Sun 03:27:42 PM 33.0142 -116.3397 302° West 367 422 29,500 -2,952 Descending Los Angeles Center
Sun 03:28:44 PM 33.0628 -116.4353 301° West 368 423 26,700 -2,613 Descending Los Angeles Center
Sun 03:29:46 PM 33.1178 -116.5417 302° West 377 434 24,100 -1,306 Descending Los Angeles Center
Sun 03:30:48 PM 33.1528 -116.6792 287° West 369 425 24,000 -480 Descending Los Angeles Center
Sun 03:31:51 PM 33.1672 -116.7989 278° West 367 422 23,100 -1,728 Descending Los Angeles Center
Sun 03:32:53 PM 33.1817 -116.9175 278° West 367 422 20,400 -2,758 Descending Los Angeles Center
Sun 03:33:55 PM 33.1950 -117.0378 278° West 367 422 17,400 -3,000 Descending Los Angeles Center
Sun 03:34:57 PM 33.2108 -117.1681 278° West 358 412 14,200 -2,565 Descending Los Angeles Center
Sun 03:35:59 PM 33.2247 -117.2792 279° West 344 396 12,100 -1,200 Descending Los Angeles Center
Sun 03:37:02 PM 33.2367 -117.3872 278° West 334 384 11,700 -976 Descending Los Angeles Center
Sun 03:38:02 PM 33.2500 -117.5000 278° West 284 327 10,100 -850 Descending Southern California TRACON
Sun 03:39:02 PM 33.2500 -117.5833 270° West 285 328 10,000 -48 Descending Southern California TRACON
Sun 03:40:08 PM 33.3125 -117.6633 313° West 280 322 10,000 -375 Level Los Angeles Center
Sun 03:41:10 PM 33.3706 -117.7247 319° Northwest 281 323 9,200 -1,000 Descending Los Angeles Center
Sun 03:42:02 PM 33.4167 -117.7833 313° West 247 284 8,100 -637 Descending Southern California TRACON
Sun 03:43:03 PM 33.4667 -117.8333 320° Northwest 253 291 8,000 -248 Descending Southern California TRACON
Sun 03:44:03 PM 33.5167 -117.8833 320° Northwest 253 291 7,600 -476 Descending Southern California TRACON
Sun 03:45:09 PM 33.5833 -117.9500 320° Northwest 253 291 7,000 -300 Descending Southern California TRACON
Sun 03:46:03 PM 33.6333 -118.0000 320° Northwest 259 298 7,000  Level Southern California TRACON
Sun 03:47:03 PM 33.7000 -118.0167 348° North 254 292 7,000  Level Southern California TRACON
Sun 03:48:03 PM 33.7667 -118.0500 337° Northwest 264 304 7,000 -150 Level Southern California TRACON
Sun 03:49:03 PM 33.8333 -118.0500 360° North 253 291 6,700 -1,000 Descending Southern California TRACON
Sun 03:50:03 PM 33.9000 -118.0667 348° North 228 262 5,000 -1,600 Descending Southern California TRACON
Sun 03:51:03 PM 33.9500 -118.1000 331° Northwest 228 262 3,500 -1,250 Descending Southern California TRACON
Sun 03:52:03 PM 33.9500 -118.1833 270° West 231 266 2,500 -791 Descending Southern California TRACON
Sun 03:52:34 PM 33.9556 -118.2072 286° West 227 261 2,300 -452 Descending Los Angeles Center
Sun 03:53:36 PM 33.9483 -118.2775 263° West 219 252 1,800 -726 Descending Los Angeles Center
Sun 03:54:38 PM 33.9417 -118.3450 263° West 180 207 800 -768 Descending Los Angeles Center
Sun 03:55:41 PM 33.9381 -118.3906 265° West 150 173 200 -571 Descending Los Angeles Center

Login

Don't have an account? Register now (free) for customized features, flight alerts, and more!